Time;durP1;ratioP1;P1;durP2;ratioP2;P2;SDS_P1;SDS_P2;PMS_P1;PMS_P2;Temp;Humidity;BMP_temperature;BMP_pressure;BME280_temperature;BME280_humidity;BME280_pressure;Samples;Min_cycle;Max_cycle;Signal;HPM_P1;HPM_P2
2022/02/27 00:01:03;;;;;;;12.35;3.40;;;-1.20;98.00;;;;;;5032917;28;20116;-67
2022/02/27 00:03:29;;;;;;;17.33;4.72;;;-1.20;98.00;;;;;;5035640;28;20044;-67
2022/02/27 00:05:55;;;;;;;17.02;3.88;;;-1.10;98.00;;;;;;5035194;28;20153;-67
2022/02/27 00:08:20;;;;;;;18.35;3.53;;;-1.10;98.00;;;;;;5036141;28;20057;-66
2022/02/27 00:10:46;;;;;;;12.25;3.25;;;-1.10;98.00;;;;;;5035769;28;20026;-67
2022/02/27 00:13:12;;;;;;;11.82;3.67;;;-1.00;98.00;;;;;;5036036;28;20369;-67
2022/02/27 00:15:37;;;;;;;17.02;4.47;;;-1.00;98.00;;;;;;5030568;28;20080;-66
2022/02/27 00:18:03;;;;;;;12.18;4.13;;;-1.00;98.00;;;;;;5029095;28;20109;-67
2022/02/27 00:20:29;;;;;;;12.77;4.05;;;-1.10;98.00;;;;;;5035253;28;20414;-66
2022/02/27 00:22:55;;;;;;;11.40;3.50;;;-1.10;98.00;;;;;;5034780;28;20033;-67
2022/02/27 00:25:21;;;;;;;12.60;3.65;;;-1.00;98.00;;;;;;5034058;28;20399;-67
2022/02/27 00:27:47;;;;;;;13.65;3.78;;;-1.00;98.00;;;;;;5035575;28;20052;-66
2022/02/27 00:30:13;;;;;;;13.68;3.63;;;-1.00;98.00;;;;;;5032105;28;20414;-66
2022/02/27 00:32:39;;;;;;;14.23;3.92;;;-1.00;98.00;;;;;;5038673;28;20426;-67
2022/02/27 00:35:07;;;;;;;13.63;3.35;;;-1.00;98.00;;;;;;5035811;28;20033;-67
2022/02/27 00:37:33;;;;;;;12.82;3.65;;;-1.10;98.00;;;;;;5035183;28;20040;-66
2022/02/27 00:39:59;;;;;;;14.68;3.55;;;-1.20;98.00;;;;;;5034697;28;20159;-67
2022/02/27 00:42:24;;;;;;;16.27;3.78;;;-1.20;98.00;;;;;;5034783;28;20458;-67
2022/02/27 00:44:50;;;;;;;11.05;3.95;;;-1.10;98.00;;;;;;5033696;28;20029;-67
2022/02/27 00:47:16;;;;;;;13.65;4.32;;;-1.20;98.00;;;;;;5035040;28;20037;-66
2022/02/27 00:49:41;;;;;;;15.85;4.97;;;-1.20;98.00;;;;;;5034549;28;20036;-66
2022/02/27 00:52:07;;;;;;;13.00;4.28;;;-1.00;98.00;;;;;;5033080;28;20071;-67
2022/02/27 00:54:33;;;;;;;10.00;4.50;;;-1.00;98.00;;;;;;5034583;28;20083;-67
2022/02/27 00:56:59;;;;;;;19.80;5.50;;;-1.00;98.00;;;;;;5035402;28;20116;-67
2022/02/27 00:59:24;;;;;;;11.77;4.00;;;-1.00;98.00;;;;;;5034133;28;20057;-66
2022/02/27 01:01:50;;;;;;;11.98;4.65;;;-1.00;98.00;;;;;;5032380;28;20022;-66
2022/02/27 01:04:16;;;;;;;16.77;4.20;;;-0.90;98.00;;;;;;5034522;28;20114;-66
2022/02/27 01:06:41;;;;;;;18.38;4.40;;;-0.90;98.00;;;;;;5035095;28;20434;-66
2022/02/27 01:09:07;;;;;;;12.30;4.07;;;-1.00;98.00;;;;;;5035816;28;20029;-67
2022/02/27 01:11:34;;;;;;;12.00;4.55;;;-1.00;98.00;;;;;;5030645;28;20032;-67
2022/02/27 01:14:00;;;;;;;20.98;5.40;;;-1.10;98.00;;;;;;5032683;28;20052;-67
2022/02/27 01:16:27;;;;;;;15.70;5.60;;;-0.90;98.00;;;;;;5027811;28;20025;-66
2022/02/27 01:18:53;;;;;;;17.00;4.82;;;-0.90;98.00;;;;;;5033156;28;20361;-66
2022/02/27 01:21:22;;;;;;;12.80;5.20;;;-0.80;98.00;;;;;;5035096;28;20112;-67
2022/02/27 01:23:48;;;;;;;17.83;4.57;;;-0.80;98.00;;;;;;5032999;28;20044;-66
2022/02/27 01:26:14;;;;;;;25.95;5.53;;;-0.90;98.00;;;;;;5033536;28;20463;-66
2022/02/27 01:28:41;;;;;;;19.77;5.03;;;-1.00;98.00;;;;;;5032585;28;20044;-66
2022/02/27 01:31:07;;;;;;;18.67;5.38;;;-1.00;98.00;;;;;;5034783;28;20079;-66
2022/02/27 01:33:34;;;;;;;12.00;4.78;;;-0.90;98.00;;;;;;5032452;28;20025;-66
2022/02/27 01:36:00;;;;;;;13.63;4.65;;;-0.90;98.00;;;;;;5034238;28;20029;-66
2022/02/27 01:38:26;;;;;;;14.85;5.03;;;-0.80;98.00;;;;;;5035211;28;20120;-66
2022/02/27 01:40:52;;;;;;;18.85;5.03;;;-0.90;98.00;;;;;;5030527;28;20160;-66
2022/02/27 01:43:18;;;;;;;15.95;5.38;;;-0.80;98.00;;;;;;5034014;28;20049;-65
2022/02/27 01:45:43;;;;;;;14.65;5.15;;;-0.90;98.00;;;;;;5032604;28;20103;-65
2022/02/27 01:48:09;;;;;;;15.63;5.88;;;-0.90;98.00;;;;;;5034229;28;20033;-67
2022/02/27 01:50:35;;;;;;;20.48;5.80;;;-0.90;98.00;;;;;;5034972;28;20132;-66
2022/02/27 01:53:01;;;;;;;18.92;5.68;;;-1.00;98.00;;;;;;5032138;28;20321;-66
2022/02/27 01:55:27;;;;;;;13.55;5.25;;;-1.00;98.00;;;;;;5033168;28;20425;-66
2022/02/27 01:57:53;;;;;;;19.15;5.80;;;-1.00;98.00;;;;;;5030107;28;20096;-67
2022/02/27 02:00:19;;;;;;;19.73;5.65;;;-1.10;98.00;;;;;;5031961;28;20315;-66
2022/02/27 02:02:45;;;;;;;13.40;4.60;;;-1.10;98.00;;;;;;5035173;28;20029;-66
2022/02/27 02:05:11;;;;;;;24.80;6.97;;;-1.10;98.00;;;;;;5031647;28;20113;-67
2022/02/27 02:07:37;;;;;;;17.45;5.80;;;-1.20;98.00;;;;;;5034739;28;20086;-66
2022/02/27 02:10:04;;;;;;;15.90;5.70;;;-1.10;98.00;;;;;;5033296;28;20033;-66
2022/02/27 02:12:30;;;;;;;21.42;6.60;;;-1.10;98.00;;;;;;5033047;28;20052;-66
2022/02/27 02:14:56;;;;;;;15.30;5.35;;;-1.10;98.00;;;;;;5033130;28;20653;-66
2022/02/27 02:17:21;;;;;;;16.40;5.15;;;-1.10;98.00;;;;;;5034071;28;20094;-66
2022/02/27 02:19:57;;;;;;;13.77;5.57;;;-1.10;98.00;;;;;;5031467;28;20052;-66
2022/02/27 02:22:26;;;;;;;19.45;5.03;;;-1.20;98.00;;;;;;5041863;28;20335;-65
2022/02/27 02:24:51;;;;;;;21.33;5.10;;;-1.20;98.00;;;;;;5030246;28;20097;-67
2022/02/27 02:27:17;;;;;;;22.67;6.10;;;-1.20;98.00;;;;;;5033999;28;20053;-67
2022/02/27 02:29:43;;;;;;;15.80;5.20;;;-1.30;98.00;;;;;;5030812;28;20083;-66
2022/02/27 02:32:10;;;;;;;18.63;5.47;;;-1.40;98.00;;;;;;5029846;28;20049;-66
2022/02/27 02:34:35;;;;;;;13.52;4.97;;;-1.40;98.00;;;;;;5032958;28;20080;-66
2022/02/27 02:37:01;;;;;;;14.43;5.35;;;-1.50;98.00;;;;;;5032975;28;20418;-66
2022/02/27 02:39:28;;;;;;;14.55;5.60;;;-1.50;98.00;;;;;;5034587;28;20047;-66
2022/02/27 02:41:55;;;;;;;20.08;5.80;;;-1.40;98.00;;;;;;5033991;28;20072;-66
2022/02/27 02:44:21;;;;;;;16.75;5.03;;;-1.40;98.00;;;;;;5031863;28;20083;-66
2022/02/27 02:46:46;;;;;;;13.40;4.90;;;-1.50;98.00;;;;;;5033948;28;20033;-66
2022/02/27 02:49:13;;;;;;;19.33;6.03;;;-1.50;98.00;;;;;;5034833;28;20020;-66
2022/02/27 02:51:40;;;;;;;16.00;5.15;;;-1.50;98.00;;;;;;5034027;28;20112;-66
2022/02/27 02:54:09;;;;;;;17.10;5.22;;;-1.50;98.00;;;;;;5032316;28;20024;-64
2022/02/27 02:56:35;;;;;;;13.90;4.68;;;-1.60;98.00;;;;;;5037119;28;20032;-65
2022/02/27 02:59:02;;;;;;;24.70;6.28;;;-1.60;98.00;;;;;;5031757;28;20101;-66
2022/02/27 03:01:28;;;;;;;14.38;5.47;;;-1.60;98.00;;;;;;5032850;28;20397;-66
2022/02/27 03:03:55;;;;;;;16.05;4.90;;;-1.50;98.00;;;;;;5032770;28;20113;-66
2022/02/27 03:06:21;;;;;;;19.98;6.35;;;-1.50;98.00;;;;;;5031526;28;20414;-66
2022/02/27 03:08:48;;;;;;;19.15;5.63;;;-1.60;98.00;;;;;;5033854;28;20091;-66
2022/02/27 03:11:16;;;;;;;15.65;5.25;;;-1.50;98.00;;;;;;5033989;28;20369;-65
2022/02/27 03:13:42;;;;;;;16.65;5.38;;;-1.50;98.00;;;;;;5034736;28;20442;-66
2022/02/27 03:16:08;;;;;;;18.35;6.30;;;-1.50;98.00;;;;;;5036129;28;20065;-66
2022/02/27 03:18:34;;;;;;;16.65;5.47;;;-1.40;98.00;;;;;;5037476;28;20075;-66
2022/02/27 03:21:00;;;;;;;16.65;5.22;;;-1.40;98.00;;;;;;5035885;28;20021;-66
2022/02/27 03:23:26;;;;;;;14.48;4.90;;;-1.50;98.00;;;;;;5035695;28;20057;-66
2022/02/27 03:25:53;;;;;;;12.88;4.93;;;-1.50;98.00;;;;;;5037073;28;20029;-67
2022/02/27 03:28:19;;;;;;;21.83;6.05;;;-1.60;98.00;;;;;;5036792;28;20078;-66
2022/02/27 03:30:45;;;;;;;16.73;6.50;;;-1.60;98.00;;;;;;5034370;28;21354;-67
2022/02/27 03:33:10;;;;;;;16.75;4.82;;;-1.60;98.00;;;;;;5035238;28;20033;-66
2022/02/27 03:35:36;;;;;;;14.40;5.30;;;-1.70;98.00;;;;;;5035957;28;20473;-66
2022/02/27 03:38:03;;;;;;;21.75;5.18;;;-1.80;98.00;;;;;;5036364;28;20029;-66
2022/02/27 03:40:30;;;;;;;17.20;5.47;;;-1.90;98.00;;;;;;5035643;28;20465;-66
2022/02/27 03:42:55;;;;;;;15.02;5.38;;;-1.90;98.00;;;;;;5037329;28;20034;-66
2022/02/27 03:45:21;;;;;;;15.90;5.35;;;-2.00;98.00;;;;;;5035473;28;20426;-66
2022/02/27 03:47:47;;;;;;;15.75;5.45;;;-2.00;97.90;;;;;;5035947;28;20072;-66
2022/02/27 03:50:15;;;;;;;16.55;6.47;;;-1.90;98.00;;;;;;5036945;28;20387;-66
2022/02/27 03:52:41;;;;;;;16.08;6.35;;;-1.60;98.00;;;;;;5038589;28;20029;-66
2022/02/27 03:55:10;;;;;;;15.18;5.88;;;-1.50;98.00;;;;;;5030806;28;20038;-66
2022/02/27 03:57:39;;;;;;;14.80;6.13;;;-1.40;98.00;;;;;;5030981;28;20034;-66
2022/02/27 04:00:09;;;;;;;20.40;7.13;;;-1.30;98.00;;;;;;5030829;28;20033;-66
2022/02/27 04:02:34;;;;;;;12.18;5.88;;;-1.20;98.00;;;;;;5032895;28;20030;-66
2022/02/27 04:05:04;;;;;;;20.58;6.40;;;-1.20;98.00;;;;;;5033417;28;20025;-66
2022/02/27 04:07:29;;;;;;;16.75;6.82;;;-1.20;98.00;;;;;;5032714;28;20148;-66
2022/02/27 04:09:55;;;;;;;20.27;6.60;;;-1.10;98.00;;;;;;5034748;28;20112;-66
2022/02/27 04:12:21;;;;;;;21.92;6.30;;;-1.00;98.00;;;;;;5033864;28;20118;-66
2022/02/27 04:14:46;;;;;;;18.50;6.20;;;-1.00;98.00;;;;;;5035188;28;20045;-66
2022/02/27 04:17:12;;;;;;;19.67;6.47;;;-1.10;98.00;;;;;;5034751;28;20029;-66
2022/02/27 04:19:38;;;;;;;17.50;6.70;;;-1.00;98.00;;;;;;5035810;28;20025;-66
2022/02/27 04:22:03;;;;;;;17.35;6.30;;;-1.00;98.00;;;;;;5034603;28;20025;-66
2022/02/27 04:24:29;;;;;;;16.48;6.55;;;-1.00;98.00;;;;;;5032593;28;20043;-67
2022/02/27 04:26:58;;;;;;;18.08;7.53;;;-1.10;98.00;;;;;;5032949;28;20060;-66
2022/02/27 04:29:24;;;;;;;20.73;6.85;;;-1.00;98.00;;;;;;5030094;28;20334;-66
2022/02/27 04:31:50;;;;;;;14.75;6.13;;;-1.10;98.00;;;;;;5033086;28;20037;-65
2022/02/27 04:34:16;;;;;;;14.35;6.55;;;-1.10;98.00;;;;;;5030535;28;20022;-65
2022/02/27 04:36:41;;;;;;;16.05;7.45;;;-1.20;98.00;;;;;;5031164;28;20425;-65
2022/02/27 04:39:09;;;;;;;15.95;6.88;;;-1.20;98.00;;;;;;5032685;28;20038;-65
2022/02/27 04:41:35;;;;;;;16.42;7.03;;;-1.10;98.00;;;;;;5031997;28;20041;-67
2022/02/27 04:44:01;;;;;;;14.38;5.95;;;-1.10;98.00;;;;;;5030340;28;20025;-67
2022/02/27 04:46:27;;;;;;;19.50;7.15;;;-1.10;98.00;;;;;;5031068;28;20064;-67
2022/02/27 04:48:53;;;;;;;11.98;5.53;;;-1.10;98.00;;;;;;5031120;28;20057;-66
2022/02/27 04:51:18;;;;;;;15.68;5.75;;;-1.10;98.00;;;;;;5033809;28;20453;-67
2022/02/27 04:53:45;;;;;;;14.85;5.90;;;-1.00;98.00;;;;;;5031318;28;20385;-66
2022/02/27 04:56:11;;;;;;;20.40;6.57;;;-0.90;98.00;;;;;;5031323;28;20055;-66
2022/02/27 04:58:37;;;;;;;16.08;6.07;;;-0.80;98.00;;;;;;5028758;28;20142;-66
2022/02/27 05:01:03;;;;;;;15.70;5.97;;;-0.80;98.00;;;;;;5032280;28;20488;-67
2022/02/27 05:03:31;;;;;;;16.30;6.07;;;-0.80;98.00;;;;;;5030046;28;20042;-66
2022/02/27 05:05:57;;;;;;;12.80;5.90;;;-0.80;98.00;;;;;;5044761;28;20021;-66
2022/02/27 05:08:23;;;;;;;12.80;6.13;;;-0.90;98.00;;;;;;5030955;28;20356;-66
2022/02/27 05:10:48;;;;;;;13.88;5.93;;;-1.00;98.00;;;;;;5032005;28;20031;-66
2022/02/27 05:13:14;;;;;;;15.52;6.53;;;-1.00;98.00;;;;;;5032084;28;20418;-66
2022/02/27 05:15:42;;;;;;;15.23;5.68;;;-1.10;98.00;;;;;;5031242;28;20025;-66
2022/02/27 05:18:08;;;;;;;18.45;6.70;;;-1.20;98.00;;;;;;5030840;28;20104;-66
2022/02/27 05:20:33;;;;;;;17.58;6.50;;;-1.30;98.00;;;;;;5032909;28;20108;-66
2022/02/27 05:22:59;;;;;;;12.23;5.60;;;-1.40;98.00;;;;;;5031914;28;20049;-66
2022/02/27 05:25:24;;;;;;;15.88;6.43;;;-1.50;98.00;;;;;;5030612;28;20337;-66
2022/02/27 05:27:52;;;;;;;14.45;5.55;;;-1.70;98.00;;;;;;5031932;28;20041;-66
2022/02/27 05:30:20;;;;;;;15.68;7.10;;;-1.90;98.00;;;;;;5030485;28;20104;-66
2022/02/27 05:32:46;;;;;;;16.00;6.60;;;-1.70;98.00;;;;;;5030565;28;20037;-66
2022/02/27 05:35:12;;;;;;;17.40;6.15;;;-1.50;98.00;;;;;;5031658;28;20025;-66
2022/02/27 05:37:38;;;;;;;9.98;5.47;;;-1.40;98.00;;;;;;5029739;28;20091;-66
2022/02/27 05:40:05;;;;;;;15.80;5.63;;;-1.50;98.00;;;;;;5031471;28;20412;-66
2022/02/27 05:42:32;;;;;;;14.23;6.03;;;-1.70;98.00;;;;;;5034119;28;20063;-66
2022/02/27 05:44:57;;;;;;;18.08;6.20;;;-1.70;98.00;;;;;;5030790;28;20112;-66
2022/02/27 05:47:23;;;;;;;11.55;5.68;;;-1.70;98.00;;;;;;5035274;28;20071;-66
2022/02/27 05:49:49;;;;;;;24.25;7.50;;;-1.70;98.00;;;;;;5037004;28;20056;-66
2022/02/27 05:52:14;;;;;;;16.48;6.63;;;-1.80;98.00;;;;;;5031148;28;20037;-66
2022/02/27 05:54:40;;;;;;;22.33;7.15;;;-1.80;98.00;;;;;;5030289;28;20080;-66
2022/02/27 05:57:06;;;;;;;13.43;5.80;;;-1.70;98.00;;;;;;5030255;28;20033;-66
2022/02/27 05:59:35;;;;;;;11.95;6.28;;;-1.60;98.00;;;;;;5027982;28;20025;-66
2022/02/27 06:02:00;;;;;;;16.67;7.93;;;-1.50;98.00;;;;;;5029357;28;20083;-66
2022/02/27 06:04:26;;;;;;;17.52;6.53;;;-1.40;98.00;;;;;;5028867;28;20372;-66
2022/02/27 06:06:52;;;;;;;9.88;5.40;;;-1.40;98.00;;;;;;5030923;28;20087;-65
2022/02/27 06:09:17;;;;;;;12.90;5.97;;;-1.40;98.00;;;;;;5029318;28;20045;-66
2022/02/27 06:11:43;;;;;;;17.08;6.07;;;-1.20;98.00;;;;;;5029670;28;20021;-66
2022/02/27 06:14:09;;;;;;;11.10;5.35;;;-1.20;98.00;;;;;;5028619;28;20438;-66
2022/02/27 06:16:34;;;;;;;10.98;5.20;;;-1.20;98.00;;;;;;5029294;28;20040;-66
2022/02/27 06:19:00;;;;;;;13.43;5.65;;;-1.10;98.00;;;;;;5030104;28;20322;-65
2022/02/27 06:21:26;;;;;;;12.90;5.40;;;-1.00;98.00;;;;;;5029628;28;20835;-66
2022/02/27 06:23:52;;;;;;;15.15;5.93;;;-1.00;98.00;;;;;;5027936;28;20326;-66
2022/02/27 06:26:18;;;;;;;11.73;5.55;;;-1.00;98.00;;;;;;5030542;28;20591;-66
2022/02/27 06:28:44;;;;;;;18.40;5.75;;;-1.00;98.00;;;;;;5028293;28;20057;-65
2022/02/27 06:31:11;;;;;;;10.95;5.75;;;-1.00;98.00;;;;;;5029684;28;20041;-65
2022/02/27 06:33:36;;;;;;;13.30;5.97;;;-1.00;98.00;;;;;;5027827;28;20030;-65
2022/02/27 06:36:02;;;;;;;15.38;6.25;;;-0.90;98.00;;;;;;5030108;28;20038;-66
2022/02/27 06:38:28;;;;;;;12.68;6.38;;;-0.80;98.00;;;;;;5028352;28;20108;-65
2022/02/27 06:40:54;;;;;;;14.88;6.18;;;-0.80;98.00;;;;;;5028815;28;20159;-65
2022/02/27 06:43:19;;;;;;;19.25;6.43;;;-0.80;98.00;;;;;;5028115;28;20032;-66
2022/02/27 06:45:45;;;;;;;14.13;6.85;;;-0.70;98.00;;;;;;5028960;28;20116;-66
2022/02/27 06:48:11;;;;;;;11.35;6.35;;;-0.70;98.00;;;;;;5035010;28;20079;-65
2022/02/27 06:50:36;;;;;;;13.02;6.32;;;-0.70;98.00;;;;;;5034748;28;20705;-66
2022/02/27 06:53:02;;;;;;;13.65;6.47;;;-0.60;98.00;;;;;;5034548;28;20057;-66
2022/02/27 06:55:28;;;;;;;18.40;7.43;;;-0.60;98.00;;;;;;5033839;28;20033;-66
2022/02/27 06:57:54;;;;;;;15.43;7.40;;;-0.60;98.00;;;;;;5033666;28;20059;-65
2022/02/27 07:00:20;;;;;;;14.52;6.32;;;-0.50;98.00;;;;;;5031792;28;20465;-67
2022/02/27 07:02:46;;;;;;;18.80;7.07;;;-0.40;98.00;;;;;;5033444;28;20418;-66
2022/02/27 07:05:13;;;;;;;14.18;6.95;;;-0.40;98.00;;;;;;5036163;28;20025;-66
2022/02/27 07:07:38;;;;;;;14.18;6.53;;;-0.40;98.00;;;;;;5037129;28;20021;-66
2022/02/27 07:10:05;;;;;;;12.55;5.95;;;-0.40;98.00;;;;;;5043143;28;20076;-66
2022/02/27 07:12:35;;;;;;;16.42;7.00;;;-0.30;98.00;;;;;;5037994;28;20030;-66
2022/02/27 07:15:02;;;;;;;14.60;7.30;;;-0.20;98.00;;;;;;5037561;28;20083;-66
2022/02/27 07:17:28;;;;;;;13.82;6.72;;;-0.20;98.00;;;;;;5038777;28;20022;-67
2022/02/27 07:19:54;;;;;;;16.05;7.07;;;-0.20;98.00;;;;;;5038215;28;20032;-67
2022/02/27 07:22:20;;;;;;;13.65;7.05;;;-0.10;98.00;;;;;;5036562;28;20017;-66
2022/02/27 07:24:46;;;;;;;12.50;6.43;;;0.00;98.00;;;;;;5038087;28;20068;-66
2022/02/27 07:27:13;;;;;;;12.73;5.80;;;0.00;98.00;;;;;;5037740;28;20076;-65
2022/02/27 07:29:40;;;;;;;14.60;7.32;;;0.10;97.90;;;;;;5035852;28;20173;-65
2022/02/27 07:32:07;;;;;;;12.43;7.07;;;0.10;97.60;;;;;;5036526;28;20029;-65
2022/02/27 07:34:33;;;;;;;16.75;6.38;;;0.20;97.20;;;;;;5037500;28;20033;-65
2022/02/27 07:36:59;;;;;;;11.55;5.32;;;0.30;96.70;;;;;;5037588;28;20033;-67
2022/02/27 07:39:26;;;;;;;16.92;6.60;;;0.40;96.30;;;;;;5038553;28;20030;-66
2022/02/27 07:41:52;;;;;;;15.07;5.82;;;0.50;95.70;;;;;;5035328;28;20083;-67
2022/02/27 07:44:18;;;;;;;10.35;5.65;;;0.60;95.40;;;;;;5035639;28;20369;-66
2022/02/27 07:46:44;;;;;;;12.95;5.85;;;0.60;94.70;;;;;;5037638;28;20094;-66
2022/02/27 07:49:10;;;;;;;12.77;5.82;;;0.70;94.40;;;;;;5037353;28;20025;-66
2022/02/27 07:51:36;;;;;;;11.77;5.90;;;0.70;93.90;;;;;;5035327;28;20454;-65
2022/02/27 07:54:03;;;;;;;11.60;5.65;;;0.80;94.20;;;;;;5038319;28;20029;-67
2022/02/27 07:56:28;;;;;;;10.90;5.20;;;0.90;93.30;;;;;;5037016;28;20028;-66
2022/02/27 07:58:54;;;;;;;13.90;5.50;;;1.00;93.20;;;;;;5036286;28;20046;-66
2022/02/27 08:01:20;;;;;;;12.75;5.75;;;1.10;92.60;;;;;;5035256;28;20014;-66
2022/02/27 08:03:46;;;;;;;14.98;5.82;;;1.10;92.00;;;;;;5036357;28;20013;-66
2022/02/27 08:06:14;;;;;;;11.15;5.45;;;1.20;91.70;;;;;;5037296;28;20333;-66
2022/02/27 08:08:40;;;;;;;15.38;5.75;;;1.30;91.30;;;;;;5029128;28;20311;-66
2022/02/27 08:11:07;;;;;;;14.90;6.78;;;1.40;91.00;;;;;;5035459;28;20032;-66
2022/02/27 08:13:33;;;;;;;14.15;5.90;;;1.40;90.70;;;;;;5035863;28;20322;-66
2022/02/27 08:15:58;;;;;;;14.82;5.88;;;1.50;90.30;;;;;;5036507;28;20030;-66
2022/02/27 08:18:25;;;;;;;17.10;5.60;;;1.60;89.80;;;;;;5035418;28;20040;-66
2022/02/27 08:20:52;;;;;;;11.18;5.38;;;1.60;89.70;;;;;;5033889;28;20036;-66
2022/02/27 08:23:20;;;;;;;11.48;5.35;;;1.90;89.40;;;;;;5031483;28;20033;-65
2022/02/27 08:25:47;;;;;;;13.18;5.53;;;2.30;88.30;;;;;;5030902;28;20021;-65
2022/02/27 08:28:13;;;;;;;10.48;4.72;;;3.20;85.60;;;;;;5030656;28;20438;-65
2022/02/27 08:30:38;;;;;;;8.27;4.47;;;4.10;82.70;;;;;;5030257;28;21529;-65
2022/02/27 08:33:07;;;;;;;11.63;6.10;;;4.60;80.70;;;;;;5033675;28;20034;-65
2022/02/27 08:35:32;;;;;;;8.82;3.90;;;5.00;79.20;;;;;;5031185;28;20038;-65
2022/02/27 08:37:58;;;;;;;11.73;4.55;;;5.10;78.10;;;;;;5029412;28;20033;-65
2022/02/27 08:40:24;;;;;;;11.75;4.30;;;4.80;78.50;;;;;;5032828;28;20025;-64
2022/02/27 08:42:54;;;;;;;7.95;4.32;;;5.00;78.70;;;;;;5039212;28;20026;-64
2022/02/27 08:45:21;;;;;;;9.88;4.57;;;5.50;77.40;;;;;;5027689;28;20075;-64
2022/02/27 08:47:48;;;;;;;10.27;4.47;;;5.30;76.70;;;;;;5028362;28;20068;-63
2022/02/27 08:50:14;;;;;;;8.57;4.43;;;5.10;77.20;;;;;;5030021;28;20505;-64
2022/02/27 08:52:40;;;;;;;12.80;5.40;;;5.40;76.70;;;;;;5029241;28;20315;-64
2022/02/27 08:55:07;;;;;;;10.70;4.60;;;5.40;75.90;;;;;;5029307;28;20078;-65
2022/02/27 08:57:33;;;;;;;9.88;4.05;;;5.40;76.80;;;;;;5029967;28;20312;-65
2022/02/27 08:59:59;;;;;;;8.45;4.35;;;5.70;76.40;;;;;;5028620;28;20348;-65
2022/02/27 09:02:25;;;;;;;12.40;5.13;;;5.90;75.00;;;;;;5030143;28;20112;-65
2022/02/27 09:04:50;;;;;;;9.43;4.80;;;5.80;75.00;;;;;;5033059;28;20749;-65
2022/02/27 09:07:17;;;;;;;9.57;4.80;;;6.00;75.00;;;;;;5031234;28;20098;-65
2022/02/27 09:09:43;;;;;;;9.65;4.72;;;6.30;74.70;;;;;;5032751;28;20021;-65
2022/02/27 09:12:10;;;;;;;9.13;4.60;;;6.40;73.50;;;;;;5034348;28;20291;-65
2022/02/27 09:14:42;;;;;;;7.40;4.28;;;6.40;73.80;;;;;;5031349;28;20033;-65
2022/02/27 09:17:07;;;;;;;8.60;4.38;;;6.40;73.50;;;;;;5031114;28;20098;-66
2022/02/27 09:19:33;;;;;;;8.95;4.47;;;6.30;72.80;;;;;;5032800;28;20021;-66
2022/02/27 09:21:59;;;;;;;7.40;4.40;;;6.20;73.30;;;;;;5031765;28;20018;-65
2022/02/27 09:24:25;;;;;;;9.50;5.00;;;6.00;74.10;;;;;;5029743;28;20052;-65
2022/02/27 09:26:50;;;;;;;9.75;4.57;;;6.10;74.30;;;;;;5032464;28;20450;-65
2022/02/27 09:29:16;;;;;;;9.25;4.55;;;5.80;75.20;;;;;;5032362;28;20033;-66
2022/02/27 09:31:42;;;;;;;10.90;4.25;;;5.90;74.80;;;;;;5031313;28;20318;-66
2022/02/27 09:34:08;;;;;;;7.65;4.05;;;6.30;73.90;;;;;;5034641;28;20026;-66
2022/02/27 09:36:35;;;;;;;10.10;4.90;;;6.30;72.90;;;;;;5032045;28;20029;-65
2022/02/27 09:39:01;;;;;;;8.68;4.25;;;6.60;72.50;;;;;;5034328;28;20057;-66
2022/02/27 09:41:26;;;;;;;10.00;4.63;;;6.80;71.60;;;;;;5034917;28;20084;-66
2022/02/27 09:43:55;;;;;;;7.03;3.80;;;6.80;70.80;;;;;;5034350;28;20742;-66
2022/02/27 09:46:22;;;;;;;7.78;3.85;;;6.70;71.20;;;;;;5036039;28;20053;-66
2022/02/27 09:48:49;;;;;;;10.30;4.30;;;6.80;70.40;;;;;;5035489;28;20037;-66
2022/02/27 09:51:15;;;;;;;8.27;4.47;;;6.90;70.70;;;;;;5034789;28;20095;-66
2022/02/27 09:53:41;;;;;;;9.93;4.15;;;6.70;70.10;;;;;;5034826;28;20044;-66
2022/02/27 09:56:07;;;;;;;8.27;4.00;;;6.60;70.00;;;;;;5034924;28;20025;-66
2022/02/27 09:58:33;;;;;;;7.00;3.63;;;6.60;69.50;;;;;;5034490;28;20036;-65
2022/02/27 10:00:59;;;;;;;10.80;3.60;;;7.10;68.40;;;;;;5034752;28;20028;-66
2022/02/27 10:03:26;;;;;;;7.07;3.40;;;7.80;67.90;;;;;;5034157;28;20041;-66
2022/02/27 10:06:03;;;;;;;6.50;3.58;;;8.60;65.10;;;;;;5035507;28;20306;-65
2022/02/27 10:08:41;;;;;;;7.05;3.38;;;8.80;63.80;;;;;;5034812;28;20361;-65
2022/02/27 10:11:12;;;;;;;7.32;3.58;;;8.80;63.60;;;;;;5033949;28;20026;-66
2022/02/27 10:13:41;;;;;;;8.07;4.88;;;8.90;63.10;;;;;;5032635;28;20029;-65
2022/02/27 10:16:09;;;;;;;7.25;3.47;;;8.70;62.40;;;;;;5035170;28;20037;-64
2022/02/27 10:18:39;;;;;;;7.85;3.78;;;7.80;62.80;;;;;;5035118;28;20028;-65
2022/02/27 10:21:16;;;;;;;7.22;3.70;;;7.70;64.20;;;;;;5036942;28;20026;-65
2022/02/27 10:23:42;;;;;;;6.55;2.97;;;7.70;63.70;;;;;;5039116;28;20041;-65
2022/02/27 10:26:23;;;;;;;5.75;2.85;;;7.30;62.90;;;;;;5036912;28;20045;-65
2022/02/27 10:29:13;;;;;;;6.55;2.97;;;6.90;63.40;;;;;;5036252;28;20474;-65
2022/02/27 10:31:44;;;;;;;6.68;3.10;;;7.10;62.90;;;;;;5038401;28;20035;-67
2022/02/27 10:34:27;;;;;;;5.18;2.95;;;7.10;63.80;;;;;;5036770;28;20406;-68
2022/02/27 10:37:06;;;;;;;7.80;3.72;;;7.00;63.50;;;;;;5038360;28;20410;-67
2022/02/27 10:39:46;;;;;;;7.53;3.78;;;7.20;64.20;;;;;;5038195;28;20021;-66
2022/02/27 10:42:13;;;;;;;6.25;3.50;;;7.50;64.60;;;;;;5034553;28;20032;-66
2022/02/27 10:44:41;;;;;;;7.25;3.60;;;7.70;63.40;;;;;;5036516;28;20041;-66
2022/02/27 10:47:18;;;;;;;9.35;4.28;;;7.60;62.90;;;;;;5038226;28;20034;-67
2022/02/27 10:49:45;;;;;;;8.32;4.00;;;7.60;64.00;;;;;;5038595;28;20361;-67
2022/02/27 10:52:18;;;;;;;6.38;3.58;;;7.70;64.30;;;;;;5035206;28;20064;-67
2022/02/27 10:54:47;;;;;;;7.57;3.37;;;7.50;63.40;;;;;;5035207;28;20477;-67
2022/02/27 10:57:31;;;;;;;7.43;3.50;;;7.20;64.50;;;;;;5035657;28;20025;-67
2022/02/27 11:00:19;;;;;;;;;;;7.40;65.00;;;;;;5020701;28;20405;-67
2022/02/27 11:03:04;;;;;;;6.53;4.20;;;7.50;64.50;;;;;;5035309;28;19972;-66
2022/02/27 11:05:32;;;;;;;7.85;3.70;;;7.50;65.30;;;;;;5034130;28;20057;-66
2022/02/27 11:08:01;;;;;;;6.03;3.80;;;7.80;64.70;;;;;;5035728;28;20471;-66
2022/02/27 11:10:32;;;;;;;7.43;4.20;;;8.10;63.90;;;;;;5034387;28;20033;-66
2022/02/27 11:13:00;;;;;;;7.40;4.05;;;8.10;64.90;;;;;;5035583;28;20037;-66
2022/02/27 11:15:26;;;;;;;10.93;4.72;;;8.50;65.00;;;;;;5034389;28;20437;-66
2022/02/27 11:17:51;;;;;;;10.10;5.18;;;8.60;65.20;;;;;;5032935;28;20044;-66
2022/02/27 11:20:20;;;;;;;7.82;4.28;;;8.60;65.40;;;;;;5035256;28;20682;-66
2022/02/27 11:22:50;;;;;;;9.00;5.00;;;8.80;64.30;;;;;;5034060;28;20033;-66
2022/02/27 11:25:19;;;;;;;8.05;4.28;;;8.70;64.10;;;;;;5022322;28;20418;-66
2022/02/27 11:28:11;;;;;;;11.30;4.75;;;8.60;65.00;;;;;;5034063;28;20405;-65
2022/02/27 11:30:40;;;;;;;8.60;4.25;;;8.60;64.80;;;;;;5033564;28;20033;-65
2022/02/27 11:33:12;;;;;;;7.43;4.32;;;8.30;64.60;;;;;;5034902;28;20104;-65
2022/02/27 11:35:44;;;;;;;7.65;3.72;;;8.20;65.20;;;;;;5034205;28;20037;-65
2022/02/27 11:38:41;;;;;;;7.35;3.72;;;8.20;65.70;;;;;;5032649;28;20116;-66
2022/02/27 11:41:12;;;;;;;6.85;3.78;;;9.10;63.10;;;;;;5017085;28;20030;-66
2022/02/27 11:43:51;;;;;;;7.45;4.22;;;8.90;60.60;;;;;;5033313;28;20034;-66
2022/02/27 11:46:43;;;;;;;7.60;4.00;;;8.50;61.10;;;;;;5034668;28;20013;-66
2022/02/27 11:49:19;;;;;;;7.53;4.18;;;8.20;62.70;;;;;;5034332;28;20183;-65
2022/02/27 11:52:05;;;;;;;6.70;4.03;;;8.50;62.80;;;;;;5033675;28;20033;-65
2022/02/27 11:54:41;;;;;;;8.93;3.60;;;8.70;62.80;;;;;;5033539;28;20091;-65
2022/02/27 11:57:36;;;;;;;6.68;3.40;;;9.00;63.40;;;;;;5033964;28;20323;-66
2022/02/27 12:00:10;;;;;;;;;;;9.60;61.20;;;;;;5030130;28;20026;-67
2022/02/27 12:02:35;;;;;;;8.23;4.32;;;9.90;60.20;;;;;;5024165;28;19975;-66
2022/02/27 12:05:17;;;;;;;6.80;4.20;;;9.60;61.20;;;;;;5032748;28;20437;-66
2022/02/27 12:07:57;;;;;;;7.68;4.32;;;9.10;61.20;;;;;;5034027;28;20053;-66
2022/02/27 12:10:44;;;;;;;8.50;4.00;;;8.60;61.80;;;;;;5034222;28;20029;-67
2022/02/27 12:13:23;;;;;;;7.95;4.00;;;8.60;61.50;;;;;;5033565;28;20045;-66
2022/02/27 12:16:00;;;;;;;8.65;4.32;;;8.80;60.50;;;;;;5031773;28;20029;-66
2022/02/27 12:18:26;;;;;;;8.10;4.10;;;9.00;60.00;;;;;;5026971;28;20095;-66
2022/02/27 12:20:58;;;;;;;9.73;4.53;;;8.90;60.80;;;;;;5031874;28;20033;-66
2022/02/27 12:23:38;;;;;;;9.57;4.30;;;8.70;61.10;;;;;;5032927;28;20435;-66
2022/02/27 12:26:33;;;;;;;8.98;4.78;;;8.80;62.30;;;;;;5030618;28;20045;-67
2022/02/27 12:28:59;;;;;;;;;;;9.40;61.70;;;;;;5014431;28;20144;-66
2022/02/27 12:31:30;;;;;;;7.72;4.10;;;9.30;60.80;;;;;;5033705;28;20370;-66
2022/02/27 12:34:09;;;;;;;7.97;4.03;;;9.60;61.60;;;;;;5032304;28;20103;-67
2022/02/27 12:36:41;;;;;;;7.10;3.70;;;9.80;60.70;;;;;;5040192;28;20021;-66
2022/02/27 12:39:09;;;;;;;8.32;3.97;;;10.00;59.30;;;;;;5028974;28;20029;-67
2022/02/27 12:41:44;;;;;;;7.40;3.50;;;9.90;60.40;;;;;;5032691;28;20026;-67
2022/02/27 12:44:27;;;;;;;8.48;4.00;;;10.20;61.20;;;;;;5031304;28;20472;-67
2022/02/27 12:46:54;;;;;;;6.22;3.60;;;10.30;60.30;;;;;;5036044;28;20033;-67
2022/02/27 12:52:16;;;;;;;7.47;3.70;;;10.10;59.50;;;;;;5032682;28;20095;-67